Time;durP1;ratioP1;P1;durP2;ratioP2;P2;SDS_P1;SDS_P2;PMS_P1;PMS_P2;Temp;Humidity;BMP_temperature;BMP_pressure;BME280_temperature;BME280_humidity;BME280_pressure;Samples;Min_cycle;Max_cycle;Signal;HPM_P1;HPM_P2
2022/12/10 00:00:20;;;;;;;78.30;28.87;;;-0.20;99.90;;;;;;4935364;29;20433;-51
2022/12/10 00:02:46;;;;;;;69.30;27.13;;;-0.20;99.90;;;;;;4935736;29;20123;-53
2022/12/10 00:05:12;;;;;;;76.57;28.97;;;-0.30;99.90;;;;;;4935869;29;20031;-53
2022/12/10 00:07:37;;;;;;;72.80;28.13;;;-0.30;99.90;;;;;;4935519;29;20035;-55
2022/12/10 00:10:03;;;;;;;69.67;29.13;;;-0.30;99.90;;;;;;4935393;29;20035;-55
2022/12/10 00:12:29;;;;;;;75.83;28.93;;;-0.30;99.90;;;;;;4935721;28;20042;-53
2022/12/10 00:14:55;;;;;;;71.17;28.37;;;-0.40;99.90;;;;;;4935620;29;20034;-53
2022/12/10 00:17:20;;;;;;;75.90;29.70;;;-0.40;99.90;;;;;;4949996;28;20024;-53
2022/12/10 00:19:46;;;;;;;75.67;29.63;;;-0.50;99.90;;;;;;4935413;29;20028;-51
2022/12/10 00:22:12;;;;;;;76.73;28.93;;;-0.60;99.90;;;;;;4935418;29;20405;-55
2022/12/10 00:24:37;;;;;;;71.47;28.23;;;-0.60;99.90;;;;;;4935690;29;20039;-52
2022/12/10 00:27:03;;;;;;;73.80;27.63;;;-0.60;99.90;;;;;;4935243;29;20106;-54
2022/12/10 00:29:29;;;;;;;79.60;29.37;;;-0.60;99.90;;;;;;4949717;28;20039;-55
2022/12/10 00:31:54;;;;;;;82.77;30.03;;;-0.60;99.90;;;;;;4949512;28;20047;-51
2022/12/10 00:34:20;;;;;;;75.30;29.07;;;-0.60;99.90;;;;;;4935227;29;20047;-54
2022/12/10 00:36:48;;;;;;;81.33;30.20;;;-0.70;99.90;;;;;;4935082;29;20082;-55
2022/12/10 00:39:17;;;;;;;;;;;-0.70;99.90;;;;;;4934255;29;20028;-55
2022/12/10 00:41:43;;;;;;;79.37;30.13;;;-0.80;99.90;;;;;;4933731;29;19921;-56
2022/12/10 00:44:09;;;;;;;81.13;29.77;;;-0.80;99.90;;;;;;4934939;29;20024;-54
2022/12/10 00:46:35;;;;;;;79.83;29.67;;;-0.80;99.90;;;;;;4934958;29;20481;-49
2022/12/10 00:49:01;;;;;;;82.80;30.03;;;-0.90;99.90;;;;;;4934721;29;20028;-50
2022/12/10 00:51:28;;;;;;;84.17;30.37;;;-1.00;99.90;;;;;;4949427;28;20046;-50
2022/12/10 00:53:55;;;;;;;79.10;30.93;;;-0.90;99.90;;;;;;4949466;28;20081;-51
2022/12/10 00:56:29;;;;;;;80.32;31.55;;;-1.00;99.90;;;;;;4949308;29;20039;-51
2022/12/10 00:58:55;;;;;;;75.17;29.27;;;-1.00;99.90;;;;;;4949230;28;20377;-53
2022/12/10 01:01:27;;;;;;;88.50;32.53;;;-1.00;99.90;;;;;;4977225;23;20145;-52
2022/12/10 01:03:58;;;;;;;85.53;33.03;;;-1.00;99.90;;;;;;5010775;28;20139;-53
2022/12/10 01:06:28;;;;;;;89.33;32.07;;;-1.10;99.90;;;;;;5010642;28;20041;-51
2022/12/10 01:08:56;;;;;;;86.70;30.75;;;-1.10;99.90;;;;;;5010506;28;20458;-50
2022/12/10 01:11:25;;;;;;;90.25;32.78;;;-1.10;99.90;;;;;;5012143;28;20402;-50
2022/12/10 01:13:51;;;;;;;86.82;31.52;;;-1.10;99.90;;;;;;5012153;28;20026;-50
2022/12/10 01:16:20;;;;;;;91.93;32.00;;;-1.10;99.90;;;;;;5010528;28;20117;-52
2022/12/10 01:18:46;;;;;;;85.83;31.17;;;-1.10;99.90;;;;;;5010398;28;20030;-50
2022/12/10 01:21:16;;;;;;;82.63;30.97;;;-1.10;99.90;;;;;;5011673;28;20033;-52
2022/12/10 01:23:43;;;;;;;82.80;31.20;;;-1.10;99.90;;;;;;5011628;28;20100;-52
2022/12/10 01:26:12;;;;;;;86.43;30.77;;;-1.10;99.90;;;;;;5010464;28;20030;-52
2022/12/10 01:28:39;;;;;;;85.55;30.75;;;-1.30;99.90;;;;;;5010041;28;20084;-51
2022/12/10 01:31:19;;;;;;;82.70;30.00;;;-1.40;99.90;;;;;;5010257;28;20037;-52
2022/12/10 01:33:46;;;;;;;80.53;30.15;;;-1.40;99.90;;;;;;5011626;28;20041;-53
2022/12/10 01:36:17;;;;;;;95.33;32.90;;;-1.30;99.90;;;;;;5011407;28;20022;-52
2022/12/10 01:38:43;;;;;;;85.77;30.97;;;-1.30;99.90;;;;;;5011155;28;20029;-52
2022/12/10 01:41:18;;;;;;;94.17;32.67;;;-1.30;99.90;;;;;;5011588;28;20156;-51
2022/12/10 01:44:04;;;;;;;87.70;32.03;;;-1.40;99.90;;;;;;5010833;28;20042;-51
2022/12/10 01:46:39;;;;;;;83.67;29.43;;;-1.50;99.90;;;;;;5010892;28;20033;-53
2022/12/10 01:49:08;;;;;;;87.23;32.03;;;-1.50;99.90;;;;;;5009839;28;20033;-53
2022/12/10 01:51:37;;;;;;;84.20;30.77;;;-1.50;99.90;;;;;;5011383;28;20027;-51
2022/12/10 01:54:05;;;;;;;90.93;29.52;;;-1.50;99.90;;;;;;5010139;28;20045;-54
2022/12/10 01:56:32;;;;;;;88.07;32.03;;;-1.50;99.90;;;;;;5011020;28;20030;-53
2022/12/10 01:58:58;;;;;;;84.03;29.50;;;-1.50;99.90;;;;;;5009632;28;20442;-51
2022/12/10 02:01:47;;;;;;;84.27;30.33;;;-1.50;99.90;;;;;;5011275;28;20052;-51
2022/12/10 02:04:42;;;;;;;87.10;29.83;;;-1.60;99.90;;;;;;5009758;28;20513;-51
2022/12/10 02:07:26;;;;;;;78.70;29.20;;;-1.50;99.90;;;;;;5010786;28;20429;-52
2022/12/10 02:10:13;;;;;;;78.43;28.23;;;-1.60;99.90;;;;;;5010847;28;20046;-52
2022/12/10 02:12:57;;;;;;;88.67;30.07;;;-1.60;99.90;;;;;;5009551;28;20558;-50
2022/12/10 02:15:39;;;;;;;77.33;29.33;;;-1.60;99.90;;;;;;5010894;28;20038;-52
2022/12/10 02:18:16;;;;;;;74.63;28.87;;;-1.60;99.90;;;;;;5009444;28;20030;-51
2022/12/10 02:20:47;;;;;;;76.73;28.93;;;-1.60;99.90;;;;;;5009378;28;20033;-52
2022/12/10 02:23:22;;;;;;;85.43;30.10;;;-1.60;99.90;;;;;;5009616;28;20037;-51
2022/12/10 02:26:01;;;;;;;80.53;28.60;;;-1.60;99.90;;;;;;5009537;28;20450;-51
2022/12/10 02:28:52;;;;;;;80.55;29.67;;;-1.70;99.90;;;;;;5009421;28;20041;-52
2022/12/10 02:31:25;;;;;;;88.47;31.27;;;-1.80;99.90;;;;;;5009319;28;20056;-52
2022/12/10 02:33:59;;;;;;;79.10;28.63;;;-1.90;99.90;;;;;;5009423;28;20030;-50
2022/12/10 02:36:30;;;;;;;81.80;29.13;;;-1.90;99.90;;;;;;5010541;28;20034;-47
2022/12/10 02:38:59;;;;;;;88.67;30.40;;;-1.90;99.90;;;;;;5009230;28;20076;-48
2022/12/10 02:41:35;;;;;;;85.85;30.55;;;-1.80;99.90;;;;;;5009361;28;20032;-51
2022/12/10 02:44:05;;;;;;;86.47;30.93;;;-1.70;99.90;;;;;;5009331;28;20026;-51
2022/12/10 02:46:34;;;;;;;95.97;31.67;;;-1.70;99.90;;;;;;5009120;28;20033;-50
2022/12/10 02:49:05;;;;;;;89.70;32.40;;;-1.60;99.90;;;;;;5008986;28;20065;-52
2022/12/10 02:51:32;;;;;;;102.13;32.27;;;-1.60;99.90;;;;;;5009348;28;20034;-52
2022/12/10 02:54:00;;;;;;;108.10;35.13;;;-1.50;99.90;;;;;;5010163;28;20036;-51
2022/12/10 02:56:45;;;;;;;104.03;34.77;;;-1.50;99.90;;;;;;5012904;28;20037;-52
2022/12/10 02:59:56;;;;;;;162.10;37.77;;;-1.40;99.90;;;;;;5012942;28;20021;-52
2022/12/10 03:02:50;;;;;;;146.77;37.00;;;-1.30;99.90;;;;;;5031372;28;20045;-49
2022/12/10 03:05:30;;;;;;;199.07;39.33;;;-1.30;99.90;;;;;;4979938;28;20045;-51
2022/12/10 03:08:07;;;;;;;167.60;39.23;;;-1.40;99.90;;;;;;5013992;28;20044;-52
2022/12/10 03:10:39;;;;;;;303.87;43.57;;;-1.50;99.90;;;;;;5013829;28;20030;-50
2022/12/10 03:13:09;;;;;;;347.47;48.00;;;-1.60;99.90;;;;;;5014248;28;20038;-53
2022/12/10 03:15:38;;;;;;;354.33;45.90;;;-1.60;99.90;;;;;;5014205;28;20108;-47
2022/12/10 03:18:06;;;;;;;197.77;41.80;;;-1.60;99.90;;;;;;5013787;28;20050;-50
2022/12/10 03:20:36;;;;;;;149.77;39.80;;;-1.50;99.90;;;;;;5013606;28;20061;-52
2022/12/10 03:23:05;;;;;;;145.37;39.00;;;-1.40;99.90;;;;;;5014120;28;20116;-51
2022/12/10 03:25:32;;;;;;;165.70;42.67;;;-1.40;99.90;;;;;;5013897;28;20474;-51
2022/12/10 03:28:00;;;;;;;164.90;42.80;;;-1.30;99.90;;;;;;5013676;28;20034;-51
2022/12/10 03:30:26;;;;;;;158.53;41.80;;;-1.20;99.90;;;;;;5013483;28;20410;-50
2022/12/10 03:32:52;;;;;;;296.43;45.83;;;-1.20;99.90;;;;;;5013490;28;20026;-46
2022/12/10 03:35:22;;;;;;;224.43;43.90;;;-1.20;99.90;;;;;;5013696;28;20033;-52
2022/12/10 03:37:49;;;;;;;145.15;40.42;;;-1.30;99.90;;;;;;5013479;28;20061;-53
2022/12/10 03:40:19;;;;;;;156.57;40.87;;;-1.30;99.90;;;;;;5013720;28;20041;-51
2022/12/10 03:42:45;;;;;;;218.87;45.90;;;-1.20;99.90;;;;;;5013603;28;20496;-51
2022/12/10 03:45:11;;;;;;;228.50;44.67;;;-1.20;99.90;;;;;;5013555;28;20041;-52
2022/12/10 03:47:37;;;;;;;176.63;42.87;;;-1.30;99.90;;;;;;5013239;28;20034;-51
2022/12/10 03:50:03;;;;;;;168.70;44.13;;;-1.40;99.90;;;;;;5013405;28;20070;-49
2022/12/10 03:52:29;;;;;;;168.67;40.40;;;-1.40;99.90;;;;;;5013240;28;20061;-53
2022/12/10 03:54:54;;;;;;;151.67;40.37;;;-1.30;99.90;;;;;;5013340;28;20073;-52
2022/12/10 03:57:20;;;;;;;155.23;41.90;;;-1.30;99.90;;;;;;5013036;28;20068;-51
2022/12/10 03:59:46;;;;;;;145.13;41.27;;;-1.30;99.90;;;;;;5012977;28;20022;-52
2022/12/10 04:02:11;;;;;;;138.83;40.37;;;-1.20;99.90;;;;;;5013236;28;20037;-49
2022/12/10 04:04:37;;;;;;;131.83;39.97;;;-1.20;99.90;;;;;;5013145;28;20029;-47
2022/12/10 04:07:03;;;;;;;139.43;40.07;;;-1.30;99.90;;;;;;5012270;28;20040;-51
2022/12/10 04:09:29;;;;;;;142.20;39.70;;;-1.20;99.90;;;;;;5012766;28;20034;-49
2022/12/10 04:11:58;;;;;;;139.40;40.00;;;-1.10;99.90;;;;;;5012863;28;20040;-50
2022/12/10 04:17:09;;;;;;;126.90;39.03;;;-0.90;99.90;;;;;;5012690;28;20118;-51
2022/12/10 04:19:35;;;;;;;130.27;39.63;;;-1.00;99.90;;;;;;5012747;28;20109;-47
2022/12/10 04:27:33;;;;;;;123.70;38.23;;;-0.90;99.90;;;;;;5012530;28;20119;-48
2022/12/10 04:30:00;;;;;;;116.03;37.00;;;-0.80;99.90;;;;;;5012489;28;20034;-49
2022/12/10 04:32:28;;;;;;;121.77;37.47;;;-0.90;99.90;;;;;;5012550;28;20029;-47
2022/12/10 04:34:54;;;;;;;120.53;38.97;;;-1.00;99.90;;;;;;5012577;28;20033;-47
2022/12/10 04:37:21;;;;;;;118.93;37.77;;;-1.00;99.90;;;;;;5010956;28;20045;-47
2022/12/10 04:39:48;;;;;;;141.77;37.60;;;-0.90;99.90;;;;;;5012275;28;20041;-47
2022/12/10 04:42:14;;;;;;;117.00;38.10;;;-0.90;99.90;;;;;;5012303;28;20026;-48
2022/12/10 04:44:40;;;;;;;129.47;38.47;;;-0.90;99.90;;;;;;5012504;28;20052;-47
2022/12/10 04:47:06;;;;;;;135.00;39.70;;;-0.90;99.90;;;;;;5012232;28;20037;-48
2022/12/10 04:49:32;;;;;;;142.83;39.03;;;-0.90;99.90;;;;;;5012172;28;20087;-47
2022/12/10 04:51:59;;;;;;;158.53;40.23;;;-0.90;99.90;;;;;;5012058;28;20387;-47
2022/12/10 04:54:25;;;;;;;146.07;39.60;;;-1.00;99.90;;;;;;5012492;28;20045;-47
2022/12/10 04:56:50;;;;;;;142.37;39.77;;;-1.00;99.90;;;;;;5012170;28;20030;-48
2022/12/10 04:59:16;;;;;;;143.30;40.73;;;-1.10;99.90;;;;;;5012054;28;20402;-48
2022/12/10 05:01:42;;;;;;;151.27;41.50;;;-1.00;99.90;;;;;;5011753;28;20029;-52
2022/12/10 05:04:11;;;;;;;134.33;39.27;;;-1.00;99.90;;;;;;5012040;28;20041;-47
2022/12/10 05:06:37;;;;;;;114.88;37.38;;;-0.90;99.90;;;;;;5011735;28;20501;-48
2022/12/10 05:09:03;;;;;;;108.77;36.57;;;-0.80;99.90;;;;;;5011920;28;20124;-47
2022/12/10 05:11:30;;;;;;;98.57;33.30;;;-0.80;99.90;;;;;;5012054;28;20036;-48
2022/12/10 05:13:57;;;;;;;94.03;32.63;;;-0.70;99.90;;;;;;5011678;28;20038;-49
2022/12/10 05:16:24;;;;;;;95.77;33.93;;;-0.70;99.90;;;;;;5011519;28;20159;-47
2022/12/10 05:18:50;;;;;;;97.67;33.17;;;-0.70;99.90;;;;;;5010622;28;20368;-48
2022/12/10 05:21:19;;;;;;;136.97;33.33;;;-0.70;99.90;;;;;;5011448;28;20053;-49
2022/12/10 05:23:50;;;;;;;92.38;29.55;;;-0.70;99.90;;;;;;5011689;28;20030;-48
2022/12/10 05:26:20;;;;;;;93.30;32.33;;;-0.80;99.90;;;;;;5011822;28;20049;-47
2022/12/10 05:28:54;;;;;;;84.50;31.80;;;-0.80;99.90;;;;;;5011412;28;20131;-49
2022/12/10 05:31:20;;;;;;;89.03;31.43;;;-0.80;99.90;;;;;;5011376;28;20029;-48
2022/12/10 05:33:47;;;;;;;90.17;31.20;;;-0.80;99.90;;;;;;5011354;28;20092;-50
2022/12/10 05:36:14;;;;;;;93.60;33.37;;;-0.80;99.90;;;;;;5011469;28;20393;-50
2022/12/10 05:38:41;;;;;;;102.03;34.00;;;-0.70;99.90;;;;;;5011125;28;20022;-49
2022/12/10 05:41:13;;;;;;;96.53;32.53;;;-0.80;99.90;;;;;;5011256;28;20041;-50
2022/12/10 05:43:39;;;;;;;85.07;30.67;;;-0.80;99.90;;;;;;5010068;28;20442;-48
2022/12/10 05:46:07;;;;;;;83.93;28.90;;;-0.80;99.90;;;;;;5011185;28;20092;-47
2022/12/10 05:48:34;;;;;;;91.47;30.83;;;-0.80;99.90;;;;;;5010925;28;20448;-49
2022/12/10 05:51:13;;;;;;;91.23;31.83;;;-0.80;99.90;;;;;;5011163;28;20030;-47
2022/12/10 05:53:39;;;;;;;84.23;30.80;;;-0.80;99.90;;;;;;5011214;28;20391;-49
2022/12/10 05:56:15;;;;;;;84.50;31.97;;;-0.80;99.90;;;;;;5011211;28;20083;-51
2022/12/10 05:58:43;;;;;;;81.47;30.47;;;-0.80;99.90;;;;;;5010640;28;20072;-52
2022/12/10 06:01:12;;;;;;;82.93;29.33;;;-0.80;99.90;;;;;;5010991;28;20026;-51
2022/12/10 06:03:38;;;;;;;81.85;30.17;;;-0.80;99.90;;;;;;5011083;28;20399;-47
2022/12/10 06:06:04;;;;;;;84.03;29.70;;;-0.80;99.90;;;;;;5011184;28;20034;-48
2022/12/10 06:08:31;;;;;;;86.53;31.60;;;-0.80;99.90;;;;;;5010705;28;20038;-50
2022/12/10 06:11:01;;;;;;;85.67;31.10;;;-0.80;99.90;;;;;;5010836;28;20041;-53
2022/12/10 06:13:27;;;;;;;84.60;31.30;;;-0.80;99.90;;;;;;5010814;28;20030;-52
2022/12/10 06:15:52;;;;;;;90.63;32.97;;;-0.70;99.90;;;;;;5011131;28;20545;-50
2022/12/10 06:18:18;;;;;;;83.60;30.90;;;-0.70;99.90;;;;;;5010614;28;20285;-49
2022/12/10 06:20:44;;;;;;;77.73;30.13;;;-0.70;99.90;;;;;;5010507;28;20033;-48
2022/12/10 06:23:09;;;;;;;82.40;31.80;;;-0.70;99.90;;;;;;5011178;28;20116;-49
2022/12/10 06:25:38;;;;;;;82.20;30.93;;;-0.70;99.90;;;;;;5010552;28;20033;-52
2022/12/10 06:28:05;;;;;;;80.40;30.10;;;-0.60;99.90;;;;;;5010519;28;20033;-53
2022/12/10 06:30:31;;;;;;;80.60;29.67;;;-0.60;99.90;;;;;;5014407;28;20046;-53
2022/12/10 06:32:57;;;;;;;74.77;29.17;;;-0.60;99.90;;;;;;5014823;28;20040;-53
2022/12/10 06:35:22;;;;;;;83.33;30.40;;;-0.50;99.90;;;;;;5014891;28;20471;-51
2022/12/10 06:37:49;;;;;;;82.67;31.23;;;-0.50;99.90;;;;;;5014433;28;20044;-52
2022/12/10 06:40:17;;;;;;;83.43;30.93;;;-0.60;99.90;;;;;;5014274;28;20147;-53
2022/12/10 06:42:43;;;;;;;81.93;30.60;;;-0.50;99.90;;;;;;5014575;28;20022;-52
2022/12/10 06:45:09;;;;;;;88.57;30.23;;;-0.50;99.90;;;;;;5014525;28;20541;-52
2022/12/10 06:47:35;;;;;;;92.53;31.03;;;-0.60;99.90;;;;;;5014366;28;20030;-51
2022/12/10 06:50:01;;;;;;;83.50;31.03;;;-0.50;99.90;;;;;;5014176;28;20387;-52
2022/12/10 06:52:26;;;;;;;77.67;30.60;;;-0.50;99.90;;;;;;5014146;28;20093;-53
2022/12/10 06:54:54;;;;;;;85.80;30.57;;;-0.50;99.90;;;;;;5014180;28;20061;-53
2022/12/10 06:57:20;;;;;;;80.80;30.73;;;-0.50;99.90;;;;;;5014062;28;20120;-54
2022/12/10 06:59:45;;;;;;;81.40;30.53;;;-0.50;99.90;;;;;;5014107;28;20109;-52
2022/12/10 07:02:11;;;;;;;85.70;32.33;;;-0.50;99.90;;;;;;5027402;23;20077;-58
2022/12/10 07:04:37;;;;;;;85.67;30.97;;;-0.50;99.90;;;;;;5014112;28;20030;-58
2022/12/10 07:07:03;;;;;;;81.47;29.80;;;-0.40;99.90;;;;;;5013955;28;20033;-58
2022/12/10 07:09:28;;;;;;;83.10;30.77;;;-0.40;99.90;;;;;;5013716;28;20086;-57
2022/12/10 07:11:54;;;;;;;81.43;30.47;;;-0.40;99.90;;;;;;5013618;28;20056;-58
2022/12/10 07:14:20;;;;;;;79.97;30.30;;;-0.40;99.90;;;;;;5013950;28;20042;-58
2022/12/10 07:16:46;;;;;;;77.67;30.33;;;-0.40;99.90;;;;;;5013801;28;20117;-59
2022/12/10 07:19:12;;;;;;;86.33;32.67;;;-0.40;99.90;;;;;;5013684;28;20105;-58
2022/12/10 07:21:40;;;;;;;82.73;31.23;;;-0.40;99.90;;;;;;5014036;28;20099;-59
2022/12/10 07:24:12;;;;;;;79.97;31.07;;;-0.40;99.90;;;;;;5013689;28;20490;-59
2022/12/10 07:26:39;;;;;;;85.93;31.33;;;-0.40;99.90;;;;;;5013582;28;20034;-59
2022/12/10 07:29:07;;;;;;;85.63;32.53;;;-0.40;99.90;;;;;;5013448;28;20113;-59
2022/12/10 07:31:33;;;;;;;85.27;32.77;;;-0.40;99.90;;;;;;5012196;28;20403;-59
2022/12/10 07:34:00;;;;;;;86.33;33.00;;;-0.40;99.90;;;;;;5013445;28;20486;-58
2022/12/10 07:36:26;;;;;;;83.67;32.90;;;-0.40;99.90;;;;;;5013365;28;20530;-59
2022/12/10 07:38:53;;;;;;;87.90;33.07;;;-0.40;99.90;;;;;;5013252;28;20100;-59
2022/12/10 07:41:21;;;;;;;88.87;34.30;;;-0.40;99.90;;;;;;5012294;28;20189;-58
2022/12/10 07:43:47;;;;;;;92.37;34.67;;;-0.40;99.90;;;;;;5013538;28;20112;-59
2022/12/10 07:46:20;;;;;;;94.00;34.80;;;-0.40;99.90;;;;;;5012148;28;20517;-59
2022/12/10 07:48:47;;;;;;;100.43;35.83;;;-0.50;99.90;;;;;;5013330;28;20045;-59
2022/12/10 07:51:14;;;;;;;98.17;34.93;;;-0.50;99.90;;;;;;5013156;28;20038;-59
2022/12/10 07:53:40;;;;;;;98.67;35.17;;;-0.50;99.90;;;;;;5013081;28;20033;-59
2022/12/10 07:56:07;;;;;;;100.87;36.77;;;-0.50;99.90;;;;;;5013245;28;20402;-59
2022/12/10 07:58:33;;;;;;;109.20;34.73;;;-0.50;99.90;;;;;;5012692;28;20030;-59
2022/12/10 08:01:05;;;;;;;101.30;36.63;;;-0.60;99.90;;;;;;5012976;28;20034;-59
2022/12/10 08:03:30;;;;;;;98.27;34.60;;;-0.60;99.90;;;;;;5013147;28;20088;-59
2022/12/10 08:06:05;;;;;;;108.83;35.30;;;-0.60;99.90;;;;;;5012948;28;20111;-59
2022/12/10 08:08:32;;;;;;;101.37;35.33;;;-0.60;99.90;;;;;;5012639;28;20384;-59
2022/12/10 08:11:00;;;;;;;106.03;36.20;;;-0.60;99.90;;;;;;5012802;28;20116;-59
2022/12/10 08:13:27;;;;;;;94.70;32.88;;;-0.60;99.90;;;;;;5012796;28;20153;-59
2022/12/10 08:15:53;;;;;;;103.70;35.47;;;-0.60;99.90;;;;;;5012902;28;20394;-59
2022/12/10 08:18:19;;;;;;;105.77;36.50;;;-0.70;99.90;;;;;;5012595;28;20038;-59
2022/12/10 08:20:45;;;;;;;97.87;34.67;;;-0.60;99.90;;;;;;5012684;28;20029;-59
2022/12/10 08:23:11;;;;;;;99.20;35.37;;;-0.70;99.90;;;;;;5012649;28;20038;-59
2022/12/10 08:25:37;;;;;;;96.60;34.17;;;-0.70;99.90;;;;;;5012516;28;20096;-59
2022/12/10 08:28:03;;;;;;;100.57;35.07;;;-0.70;99.90;;;;;;5012574;28;20102;-59
2022/12/10 08:30:30;;;;;;;98.43;33.40;;;-0.70;99.90;;;;;;5012636;28;20100;-59
2022/12/10 08:32:55;;;;;;;93.87;32.77;;;-0.70;99.90;;;;;;5012849;28;20114;-59
2022/12/10 08:35:21;;;;;;;100.70;34.33;;;-0.70;99.90;;;;;;5012398;28;20038;-59
2022/12/10 08:37:47;;;;;;;97.73;33.63;;;-0.70;99.90;;;;;;5012354;28;20061;-59
2022/12/10 08:40:13;;;;;;;94.63;33.63;;;-0.70;99.90;;;;;;5010755;28;20068;-58
2022/12/10 08:42:39;;;;;;;91.00;34.37;;;-0.70;99.90;;;;;;5012301;28;20038;-59
2022/12/10 08:45:05;;;;;;;90.67;33.63;;;-0.70;99.90;;;;;;5012347;28;20483;-59
2022/12/10 08:47:31;;;;;;;93.90;32.93;;;-0.80;99.90;;;;;;5012012;28;20391;-59
2022/12/10 08:49:57;;;;;;;95.47;33.83;;;-0.80;99.90;;;;;;5012060;28;20053;-58
2022/12/10 08:52:22;;;;;;;85.57;32.20;;;-0.70;99.90;;;;;;5011879;28;20070;-58
2022/12/10 08:54:48;;;;;;;98.23;35.10;;;-0.80;99.90;;;;;;5012053;28;20041;-59
2022/12/10 08:57:14;;;;;;;97.30;34.73;;;-0.80;99.90;;;;;;5012170;28;20112;-59
2022/12/10 08:59:40;;;;;;;91.47;33.70;;;-0.90;99.90;;;;;;5011996;28;20080;-59
2022/12/10 09:02:07;;;;;;;89.70;31.30;;;-0.90;99.90;;;;;;5011727;28;20552;-59
2022/12/10 09:04:33;;;;;;;93.27;33.30;;;-0.80;99.90;;;;;;5011981;28;20382;-59
2022/12/10 09:06:58;;;;;;;97.87;33.67;;;-0.90;99.90;;;;;;5011623;28;20030;-59
2022/12/10 09:09:24;;;;;;;96.07;32.47;;;-0.90;99.90;;;;;;5011557;28;20041;-59
2022/12/10 09:11:50;;;;;;;88.87;32.33;;;-0.90;99.90;;;;;;5011733;28;20444;-59
2022/12/10 09:14:15;;;;;;;88.17;30.93;;;-0.90;99.90;;;;;;5011588;28;20033;-59
2022/12/10 09:16:42;;;;;;;85.47;31.70;;;-0.90;99.90;;;;;;5011258;28;20072;-59
2022/12/10 09:19:08;;;;;;;92.87;31.77;;;-0.90;99.90;;;;;;5011326;28;20053;-59
2022/12/10 09:21:35;;;;;;;89.53;32.43;;;-0.90;99.90;;;;;;5011426;28;20022;-58
2022/12/10 09:24:01;;;;;;;92.20;33.37;;;-0.90;99.90;;;;;;5011569;28;20474;-59
2022/12/10 09:26:27;;;;;;;85.87;31.63;;;-0.90;99.90;;;;;;5011278;28;20030;-59
2022/12/10 09:28:54;;;;;;;87.47;31.87;;;-0.90;99.90;;;;;;5011121;28;20464;-58
2022/12/10 09:31:20;;;;;;;95.10;32.57;;;-0.90;99.90;;;;;;5011087;28;20030;-58
2022/12/10 09:33:48;;;;;;;94.30;31.77;;;-1.00;99.90;;;;;;5011225;28;20034;-59
2022/12/10 09:36:14;;;;;;;103.00;34.73;;;-1.00;99.90;;;;;;5011171;28;20037;-59
2022/12/10 09:38:43;;;;;;;102.00;33.90;;;-1.00;99.90;;;;;;5010880;28;20025;-59
2022/12/10 09:41:36;;;;;;;91.10;33.00;;;-1.00;99.90;;;;;;5011410;28;20033;-59
2022/12/10 09:44:31;;;;;;;101.43;32.33;;;-1.00;99.90;;;;;;5011123;28;20443;-59
2022/12/10 09:47:00;;;;;;;97.43;32.23;;;-0.90;99.90;;;;;;5010708;28;20041;-59
2022/12/10 09:49:48;;;;;;;96.17;32.10;;;-0.90;99.90;;;;;;5010867;28;20037;-59
2022/12/10 09:52:17;;;;;;;76.05;25.88;;;-0.90;99.90;;;;;;5010763;28;20412;-58
2022/12/10 09:54:48;;;;;;;90.80;30.40;;;-0.90;99.90;;;;;;5010922;28;20026;-59
2022/12/10 09:57:23;;;;;;;106.27;34.83;;;-0.90;99.90;;;;;;5010803;28;20033;-57
2022/12/10 09:59:51;;;;;;;100.07;31.60;;;-0.80;99.90;;;;;;5010786;28;20111;-58
2022/12/10 10:02:29;;;;;;;101.80;34.90;;;-0.80;99.90;;;;;;5010820;28;20380;-58
2022/12/10 10:05:07;;;;;;;107.13;34.93;;;-0.80;99.90;;;;;;5010294;28;20038;-58
2022/12/10 10:07:47;;;;;;;91.40;32.80;;;-0.80;99.90;;;;;;5010517;28;20057;-58
2022/12/10 10:10:35;;;;;;;104.37;36.20;;;-0.70;99.90;;;;;;5010477;28;20038;-57
2022/12/10 10:13:28;;;;;;;107.67;36.87;;;-0.80;99.90;;;;;;5010485;28;20049;-58
2022/12/10 10:15:54;;;;;;;102.03;33.67;;;-0.80;99.90;;;;;;5010628;28;20108;-58
2022/12/10 10:18:29;;;;;;;102.27;34.60;;;-0.80;99.90;;;;;;5010457;28;20034;-59
2022/12/10 10:20:56;;;;;;;98.90;34.43;;;-0.80;99.90;;;;;;5010493;28;20030;-59
2022/12/10 10:23:21;;;;;;;130.37;46.93;;;-0.80;99.90;;;;;;5010557;28;20501;-59
2022/12/10 10:25:47;;;;;;;111.13;37.77;;;-0.70;99.90;;;;;;5010716;28;20482;-59
2022/12/10 10:28:20;;;;;;;99.13;32.67;;;-0.60;99.90;;;;;;5010447;28;20026;-59
2022/12/10 10:30:45;;;;;;;90.93;32.80;;;-0.60;99.90;;;;;;5010295;28;20030;-58
2022/12/10 10:33:13;;;;;;;100.00;33.17;;;-0.60;99.90;;;;;;5010547;28;20552;-59
2022/12/10 10:35:49;;;;;;;91.97;32.77;;;-0.60;99.90;;;;;;5010576;28;20037;-59
2022/12/10 10:38:20;;;;;;;89.40;31.43;;;-0.60;99.90;;;;;;5010486;28;20033;-58
2022/12/10 10:40:56;;;;;;;89.13;32.73;;;-0.60;99.90;;;;;;5010313;28;20075;-58
2022/12/10 10:43:30;;;;;;;76.03;28.70;;;-0.50;99.90;;;;;;5009051;28;20041;-58
2022/12/10 10:46:14;;;;;;;76.80;29.67;;;-0.50;99.90;;;;;;5010481;28;20121;-58
2022/12/10 10:48:40;;;;;;;71.67;27.40;;;-0.40;99.90;;;;;;5008658;28;20380;-58
2022/12/10 10:51:20;;;;;;;61.97;25.87;;;-0.40;99.90;;;;;;5010291;28;20040;-58
2022/12/10 10:53:54;;;;;;;64.77;24.63;;;-0.30;99.90;;;;;;5010381;28;20168;-58
2022/12/10 10:56:29;;;;;;;58.43;22.93;;;-0.20;99.90;;;;;;5010166;28;20414;-59
2022/12/10 10:59:17;;;;;;;63.13;25.67;;;-0.20;99.90;;;;;;5010067;28;20050;-58
2022/12/10 11:01:52;;;;;;;52.43;21.17;;;-0.20;99.90;;;;;;5009999;28;20030;-58
2022/12/10 11:04:30;;;;;;;55.73;21.40;;;-0.10;99.90;;;;;;5010360;28;20038;-58
2022/12/10 11:07:01;;;;;;;52.45;23.08;;;0.00;99.90;;;;;;5009973;28;20038;-58
2022/12/10 11:09:30;;;;;;;51.30;21.53;;;0.10;99.90;;;;;;5009916;28;20049;-58
2022/12/10 11:12:06;;;;;;;46.88;21.00;;;0.10;99.90;;;;;;5010211;28;20120;-58
2022/12/10 11:14:38;;;;;;;48.97;21.10;;;0.20;99.90;;;;;;5010429;28;20116;-58
2022/12/10 11:17:10;;;;;;;45.67;20.03;;;0.10;99.90;;;;;;5012437;28;20022;-58
2022/12/10 11:19:42;;;;;;;47.10;21.00;;;0.20;99.90;;;;;;5013603;28;20033;-58
2022/12/10 11:22:26;;;;;;;52.77;23.03;;;0.20;99.90;;;;;;5013936;28;20033;-58
2022/12/10 11:24:52;;;;;;;58.33;23.10;;;0.20;99.90;;;;;;5013808;28;20092;-58
2022/12/10 11:27:27;;;;;;;58.70;24.30;;;0.20;99.90;;;;;;5013622;28;20113;-58
2022/12/10 11:30:24;;;;;;;60.33;24.90;;;0.20;99.90;;;;;;5013426;28;20041;-59
2022/12/10 11:33:15;;;;;;;58.93;24.30;;;0.30;99.90;;;;;;5013506;28;20045;-58
2022/12/10 11:35:56;;;;;;;52.73;22.70;;;0.40;99.90;;;;;;5013705;28;20026;-58
2022/12/10 11:38:24;;;;;;;54.00;24.20;;;0.40;99.90;;;;;;5013384;28;20026;-57
2022/12/10 11:41:00;;;;;;;51.27;23.00;;;0.40;99.90;;;;;;5013290;28;20030;-58
2022/12/10 11:43:44;;;;;;;56.07;24.43;;;0.40;99.90;;;;;;5012538;28;20450;-58
2022/12/10 11:46:28;;;;;;;54.33;22.90;;;0.40;99.90;;;;;;5013422;28;20112;-58
2022/12/10 11:49:24;;;;;;;52.70;23.80;;;0.50;99.90;;;;;;5013157;28;20038;-58
2022/12/10 11:52:10;;;;;;;56.30;24.83;;;0.40;99.90;;;;;;5013248;28;20393;-58
2022/12/10 11:55:03;;;;;;;50.00;23.37;;;0.50;99.90;;;;;;5013867;28;20172;-58
2022/12/10 11:57:47;;;;;;;53.53;22.93;;;0.50;99.90;;;;;;5013540;28;20077;-58
2022/12/10 12:00:22;;;;;;;52.67;22.27;;;0.50;99.90;;;;;;5013054;28;20114;-58
2022/12/10 12:03:23;;;;;;;51.60;24.03;;;0.60;99.90;;;;;;5012980;28;20128;-58
2022/12/10 12:05:55;;;;;;;55.87;24.10;;;0.60;99.90;;;;;;5013109;28;20061;-58
2022/12/10 12:08:52;;;;;;;56.20;24.40;;;0.50;99.90;;;;;;5012862;28;20041;-58
2022/12/10 12:11:31;;;;;;;50.53;22.83;;;0.50;99.90;;;;;;5011931;28;20038;-58
2022/12/10 12:14:01;;;;;;;54.60;22.95;;;0.50;99.90;;;;;;5013316;28;20116;-58
2022/12/10 12:16:55;;;;;;;50.13;21.17;;;0.50;99.90;;;;;;5013058;28;20049;-58
2022/12/10 12:19:33;;;;;;;52.53;22.77;;;0.60;99.90;;;;;;5012688;28;20471;-58
2022/12/10 12:22:06;;;;;;;52.00;23.80;;;0.60;99.90;;;;;;5013202;28;20034;-58
2022/12/10 12:24:37;;;;;;;58.10;24.63;;;0.60;99.90;;;;;;5012701;28;20029;-58
2022/12/10 12:27:33;;;;;;;64.73;26.37;;;0.60;99.90;;;;;;5012013;28;20026;-58
2022/12/10 12:30:15;;;;;;;59.57;25.53;;;0.60;99.90;;;;;;5012451;28;20034;-58
2022/12/10 12:33:06;;;;;;;61.40;26.33;;;0.60;99.90;;;;;;5011080;28;20499;-58
2022/12/10 12:35:47;;;;;;;62.30;25.77;;;0.50;99.90;;;;;;5012503;28;20022;-58
2022/12/10 12:38:35;;;;;;;66.03;26.57;;;0.50;99.90;;;;;;5012448;28;20505;-58
2022/12/10 12:41:12;;;;;;;52.90;22.30;;;0.40;99.90;;;;;;5012350;28;20050;-58
2022/12/10 12:43:52;;;;;;;56.67;23.30;;;0.40;99.90;;;;;;5012522;28;20509;-59
2022/12/10 12:46:27;;;;;;;53.20;22.80;;;0.40;99.90;;;;;;5012362;28;20113;-57
2022/12/10 12:49:27;;;;;;;50.67;20.93;;;0.50;99.90;;;;;;5012181;28;20026;-58
2022/12/10 12:52:25;;;;;;;46.47;21.63;;;0.40;99.90;;;;;;5012178;28;20034;-58